Time;durP1;ratioP1;P1;durP2;ratioP2;P2;SDS_P1;SDS_P2;PMS_P1;PMS_P2;Temp;Humidity;BMP_temperature;BMP_pressure;BME280_temperature;BME280_humidity;BME280_pressure;Samples;Min_cycle;Max_cycle;Signal;HPM_P1;HPM_P2
2022/11/24 05:31:51;;;;;;;9.27;2.67;;;8.90;84.30;;;;;;5248907;23;20046;-80
2022/11/24 05:34:17;;;;;;;12.32;2.50;;;8.90;84.60;;;;;;4956789;28;20027;-77
2022/11/24 05:36:52;;;;;;;12.30;2.15;;;8.90;84.60;;;;;;4956295;28;20051;-80
2022/11/24 05:39:18;;;;;;;8.25;2.65;;;8.80;84.60;;;;;;4957227;28;20031;-78
2022/11/24 05:41:44;;;;;;;11.07;2.55;;;8.80;84.60;;;;;;4957276;28;20041;-78
2022/11/24 05:44:09;;;;;;;11.43;2.60;;;8.90;84.60;;;;;;4956983;28;20455;-79
2022/11/24 05:46:35;;;;;;;7.38;2.05;;;8.90;84.70;;;;;;4956577;28;20037;-77
2022/11/24 05:49:01;;;;;;;5.25;1.85;;;8.90;84.40;;;;;;4957207;28;20474;-76
2022/11/24 05:51:26;;;;;;;7.72;2.42;;;9.00;84.40;;;;;;4957040;28;20031;-75
2022/11/24 05:53:52;;;;;;;6.60;1.50;;;9.10;84.40;;;;;;4956924;28;20024;-76
2022/11/24 05:56:18;;;;;;;17.13;2.65;;;8.90;84.30;;;;;;4951555;29;20079;-89
2022/11/24 05:58:43;;;;;;;10.48;3.22;;;8.80;84.80;;;;;;4937079;29;20031;-77
2022/11/24 06:01:09;;;;;;;11.02;2.38;;;8.80;84.90;;;;;;4949987;29;20031;-82
2022/11/24 06:03:35;;;;;;;10.13;2.95;;;8.90;84.80;;;;;;4957061;28;20049;-81
2022/11/24 06:06:01;;;;;;;8.45;2.47;;;8.90;85.00;;;;;;4956668;29;20030;-79
2022/11/24 06:08:26;;;;;;;11.68;2.13;;;8.90;84.70;;;;;;4954706;28;20037;-80
2022/11/24 06:10:52;;;;;;;20.73;3.70;;;8.90;84.70;;;;;;4955809;29;20114;-80
2022/11/24 06:13:17;;;;;;;15.63;2.47;;;9.00;84.50;;;;;;4944287;28;20440;-80
2022/11/24 06:15:43;;;;;;;12.82;3.30;;;9.00;84.60;;;;;;4938245;29;20559;-80
2022/11/24 06:18:09;;;;;;;8.73;2.33;;;9.00;84.40;;;;;;4953099;29;20020;-79
2022/11/24 06:20:34;;;;;;;9.02;3.10;;;9.00;84.20;;;;;;4951136;29;20037;-79
2022/11/24 06:23:00;;;;;;;5.78;2.58;;;9.00;84.40;;;;;;4954433;28;20114;-78
2022/11/24 06:25:27;;;;;;;10.82;2.72;;;9.00;84.50;;;;;;4954804;28;20043;-78
2022/11/24 06:27:53;;;;;;;6.78;2.28;;;9.00;84.50;;;;;;4954174;28;20031;-78
2022/11/24 06:30:18;;;;;;;10.50;2.40;;;9.00;84.60;;;;;;4936836;28;20020;-78
2022/11/24 06:32:45;;;;;;;9.68;1.77;;;9.00;84.70;;;;;;4937563;29;20035;-79
2022/11/24 06:35:13;;;;;;;15.38;3.10;;;9.10;84.70;;;;;;4940820;29;20031;-78
2022/11/24 06:37:39;;;;;;;7.18;2.20;;;9.10;84.60;;;;;;4957041;28;20030;-78
2022/11/24 06:40:07;;;;;;;10.27;2.30;;;9.10;84.60;;;;;;4956043;29;20039;-78
2022/11/24 06:42:34;;;;;;;8.38;1.98;;;9.10;84.70;;;;;;4952545;28;20027;-78
2022/11/24 06:44:59;;;;;;;5.63;1.80;;;9.10;84.90;;;;;;4937718;29;20035;-78
2022/11/24 06:47:25;;;;;;;12.10;2.20;;;9.10;85.10;;;;;;4941328;29;20067;-78
2022/11/24 06:49:51;;;;;;;17.73;3.05;;;9.20;85.20;;;;;;4941547;29;20059;-78
2022/11/24 06:52:16;;;;;;;14.55;2.50;;;9.10;85.30;;;;;;4941145;29;20095;-78
2022/11/24 06:54:42;;;;;;;12.90;2.53;;;9.20;85.30;;;;;;4941431;29;20514;-77
2022/11/24 06:57:08;;;;;;;24.20;2.80;;;9.20;85.20;;;;;;4955019;29;20050;-78
2022/11/24 06:59:33;;;;;;;10.07;1.80;;;9.20;85.10;;;;;;4960504;28;20475;-78
2022/11/24 07:01:59;;;;;;;17.50;2.88;;;9.20;85.00;;;;;;4958721;29;20031;-77
2022/11/24 07:04:25;;;;;;;13.50;2.83;;;9.20;85.00;;;;;;4959097;29;20178;-78
2022/11/24 07:06:50;;;;;;;10.77;2.45;;;9.20;85.20;;;;;;4958730;29;20503;-78
2022/11/24 07:09:16;;;;;;;10.25;2.10;;;9.20;85.10;;;;;;4959877;29;20035;-78
2022/11/24 07:11:42;;;;;;;13.98;2.33;;;9.20;85.10;;;;;;4960273;29;20047;-77
2022/11/24 07:14:08;;;;;;;8.52;2.60;;;9.20;85.10;;;;;;4955254;29;20039;-78
2022/11/24 07:16:34;;;;;;;10.73;2.40;;;9.20;85.00;;;;;;4924664;29;20030;-78
2022/11/24 07:19:00;;;;;;;9.18;2.75;;;9.20;85.00;;;;;;4941096;29;20035;-78
2022/11/24 07:21:29;;;;;;;13.10;2.78;;;9.20;85.10;;;;;;4955764;29;20530;-78
2022/11/24 07:23:56;;;;;;;10.18;2.45;;;9.20;85.00;;;;;;4940826;29;20032;-78
2022/11/24 07:26:22;;;;;;;9.93;2.05;;;9.20;84.90;;;;;;4958332;29;20114;-78
2022/11/24 07:28:48;;;;;;;13.98;2.88;;;9.20;84.80;;;;;;4959850;28;20032;-78
2022/11/24 07:31:17;;;;;;;11.57;3.30;;;9.20;84.80;;;;;;4960020;28;20054;-78
2022/11/24 07:33:51;;;;;;;9.23;2.50;;;9.10;85.10;;;;;;4959482;28;20031;-78
2022/11/24 07:36:17;;;;;;;7.30;3.38;;;9.10;85.20;;;;;;4958699;29;20051;-78
2022/11/24 07:38:43;;;;;;;9.88;2.60;;;9.00;85.40;;;;;;4957960;29;20070;-77
2022/11/24 07:41:11;;;;;;;11.70;3.38;;;9.00;85.40;;;;;;4959873;29;20027;-78
2022/11/24 07:43:38;;;;;;;20.15;3.75;;;8.90;85.50;;;;;;4958519;29;20070;-78
2022/11/24 07:46:06;;;;;;;9.70;3.38;;;8.90;85.80;;;;;;4959234;28;20035;-78
2022/11/24 07:48:32;;;;;;;14.18;3.88;;;8.90;85.90;;;;;;4959747;28;20050;-78
2022/11/24 07:51:01;;;;;;;12.98;3.85;;;8.90;85.90;;;;;;4959294;28;20719;-78
2022/11/24 07:53:27;;;;;;;13.45;4.85;;;8.90;86.00;;;;;;4959795;28;20031;-78
2022/11/24 07:55:59;;;;;;;6.90;3.63;;;8.90;86.00;;;;;;4958252;29;20034;-78
2022/11/24 07:58:26;;;;;;;11.88;4.35;;;8.90;86.10;;;;;;4958630;28;20023;-78
2022/11/24 08:00:52;;;;;;;13.48;4.57;;;9.00;86.10;;;;;;4958136;29;20023;-78
2022/11/24 08:03:17;;;;;;;13.38;3.42;;;9.10;85.90;;;;;;4941335;29;20083;-78
2022/11/24 08:05:51;;;;;;;10.48;3.30;;;9.20;85.80;;;;;;4954920;29;20030;-77
2022/11/24 08:08:17;;;;;;;13.30;3.53;;;9.20;85.90;;;;;;4953628;29;20038;-78
2022/11/24 08:10:42;;;;;;;7.68;2.67;;;9.20;85.90;;;;;;4957883;29;20016;-78
2022/11/24 08:13:08;;;;;;;8.70;3.47;;;9.20;85.80;;;;;;4959378;29;20027;-78
2022/11/24 08:15:34;;;;;;;7.43;2.45;;;9.30;86.10;;;;;;4959367;29;20428;-78
2022/11/24 08:18:01;;;;;;;19.27;4.10;;;9.50;85.90;;;;;;4958810;29;20055;-78
2022/11/24 08:20:27;;;;;;;5.35;3.15;;;9.50;85.70;;;;;;4959110;28;20395;-78
2022/11/24 08:22:56;;;;;;;10.45;3.55;;;9.60;85.60;;;;;;4943599;28;20040;-78
2022/11/24 08:25:25;;;;;;;22.17;4.45;;;9.50;85.50;;;;;;4938537;29;20047;-78
2022/11/24 08:27:51;;;;;;;12.60;3.80;;;9.60;85.70;;;;;;4939851;29;20063;-78
2022/11/24 08:30:18;;;;;;;11.45;3.55;;;9.60;85.60;;;;;;4939980;29;20515;-78
2022/11/24 08:32:44;;;;;;;15.35;5.25;;;9.60;85.60;;;;;;4939851;29;20032;-77
2022/11/24 08:35:11;;;;;;;13.02;4.22;;;9.60;85.60;;;;;;4939664;29;20043;-78
2022/11/24 08:37:36;;;;;;;15.68;4.55;;;9.70;85.40;;;;;;4954432;29;20035;-78
2022/11/24 08:40:02;;;;;;;10.50;4.18;;;9.80;85.40;;;;;;4957906;29;20495;-79
2022/11/24 08:42:28;;;;;;;12.50;4.10;;;9.70;85.30;;;;;;4958758;28;20046;-78
2022/11/24 08:44:54;;;;;;;9.27;3.38;;;9.80;85.30;;;;;;4958495;28;20432;-78
2022/11/24 08:47:20;;;;;;;12.77;2.83;;;9.80;85.30;;;;;;4958467;28;20510;-78
2022/11/24 08:49:46;;;;;;;10.20;2.38;;;9.80;85.20;;;;;;4956968;29;20019;-78
2022/11/24 08:52:11;;;;;;;10.10;2.13;;;9.90;85.20;;;;;;4956855;29;20082;-78
2022/11/24 08:54:37;;;;;;;9.32;2.63;;;9.90;85.20;;;;;;4958397;29;20115;-78
2022/11/24 08:57:03;;;;;;;12.27;2.60;;;10.00;85.60;;;;;;4958455;28;20458;-78
2022/11/24 08:59:28;;;;;;;7.07;1.52;;;10.10;85.50;;;;;;4957889;29;20031;-78
2022/11/24 09:01:54;;;;;;;9.35;2.50;;;10.20;85.50;;;;;;4957138;29;20495;-78
2022/11/24 09:04:20;;;;;;;7.28;1.77;;;10.20;85.40;;;;;;4958500;28;20031;-78
2022/11/24 09:06:45;;;;;;;8.73;2.05;;;10.20;85.50;;;;;;4940665;28;20039;-78
2022/11/24 09:09:11;;;;;;;6.53;2.03;;;10.30;85.50;;;;;;4938190;29;20032;-78
2022/11/24 09:11:37;;;;;;;8.13;2.90;;;10.30;85.70;;;;;;4950615;29;20031;-78
2022/11/24 09:14:03;;;;;;;10.80;3.50;;;10.30;85.60;;;;;;4956872;29;20082;-78
2022/11/24 09:16:29;;;;;;;8.73;1.90;;;10.40;85.80;;;;;;4958110;28;20418;-79
2022/11/24 09:19:03;;;;;;;8.60;2.38;;;10.60;85.70;;;;;;4957637;29;20102;-78
2022/11/24 09:21:30;;;;;;;19.27;2.53;;;10.60;85.70;;;;;;4956820;29;20055;-78
2022/11/24 09:23:56;;;;;;;7.13;1.90;;;10.70;85.80;;;;;;4949797;29;20071;-78
2022/11/24 09:26:25;;;;;;;10.20;2.05;;;10.80;85.60;;;;;;4938825;29;20034;-79
2022/11/24 09:28:55;;;;;;;18.65;2.22;;;10.80;85.90;;;;;;4938833;29;20020;-78
2022/11/24 09:31:23;;;;;;;15.45;4.05;;;10.90;86.10;;;;;;4957961;28;20620;-78
2022/11/24 09:33:50;;;;;;;15.10;3.08;;;10.90;86.00;;;;;;4957829;28;20035;-78
2022/11/24 09:36:15;;;;;;;12.18;3.53;;;11.00;86.10;;;;;;4957820;28;20078;-78
2022/11/24 09:38:41;;;;;;;17.73;3.92;;;11.00;86.00;;;;;;4952981;28;20036;-77
2022/11/24 09:41:16;;;;;;;11.35;2.08;;;11.00;86.10;;;;;;4953218;29;20032;-78
2022/11/24 09:43:44;;;;;;;10.50;2.78;;;11.10;86.40;;;;;;4937058;29;20044;-78
2022/11/24 09:46:18;;;;;;;15.50;3.05;;;11.10;86.30;;;;;;4937420;29;20028;-78
2022/11/24 09:48:47;;;;;;;10.30;2.63;;;11.20;86.60;;;;;;4938994;29;20466;-78
2022/11/24 09:51:14;;;;;;;8.87;3.03;;;11.30;86.60;;;;;;4938598;29;20071;-78
2022/11/24 09:53:53;;;;;;;14.65;2.38;;;11.40;86.50;;;;;;4953837;29;20031;-78
2022/11/24 09:56:27;;;;;;;10.63;1.90;;;11.50;86.50;;;;;;4951687;28;20039;-78
2022/11/24 09:59:03;;;;;;;9.95;1.52;;;11.60;86.40;;;;;;4957474;28;20035;-77
2022/11/24 10:01:32;;;;;;;7.57;1.77;;;11.70;86.50;;;;;;4957000;29;20411;-78
2022/11/24 10:03:58;;;;;;;11.18;2.42;;;11.70;86.60;;;;;;4957416;28;20512;-78
2022/11/24 10:07:03;;;;;;;8.38;2.10;;;11.70;86.50;;;;;;4957471;28;20055;-78
2022/11/24 10:09:38;;;;;;;6.50;2.10;;;11.70;86.60;;;;;;4937333;28;20039;-78
2022/11/24 10:12:19;;;;;;;9.50;2.28;;;11.80;86.90;;;;;;4949805;29;20019;-78
2022/11/24 10:15:18;;;;;;;7.55;2.20;;;11.90;86.70;;;;;;4953030;29;20039;-78
2022/11/24 10:18:11;;;;;;;12.55;2.72;;;12.00;86.70;;;;;;4953810;29;20031;-78
2022/11/24 10:21:02;;;;;;;11.85;2.72;;;12.20;86.70;;;;;;4940307;29;20035;-78
2022/11/24 10:24:05;;;;;;;9.00;1.92;;;12.40;86.30;;;;;;4941969;29;20106;-78
2022/11/24 10:26:37;;;;;;;17.45;3.47;;;12.50;86.10;;;;;;4958300;29;20035;-77
2022/11/24 10:29:12;;;;;;;15.35;2.95;;;12.60;86.30;;;;;;4961075;28;20031;-78
2022/11/24 10:31:43;;;;;;;20.00;3.58;;;12.70;86.20;;;;;;4960973;28;20055;-78
2022/11/24 10:34:16;;;;;;;7.30;1.83;;;12.70;85.90;;;;;;4941384;29;20039;-78
2022/11/24 10:36:54;;;;;;;9.38;2.13;;;12.70;86.10;;;;;;4956513;29;20032;-78
2022/11/24 10:39:45;;;;;;;13.25;3.15;;;12.80;86.10;;;;;;4940608;29;20463;-78
2022/11/24 10:42:30;;;;;;;11.95;2.63;;;12.80;86.00;;;;;;4921123;29;20155;-78
2022/11/24 10:45:10;;;;;;;13.48;2.10;;;12.80;86.00;;;;;;4956425;29;20091;-78
2022/11/24 10:47:36;;;;;;;4.85;1.63;;;12.80;86.20;;;;;;4956568;29;20027;-78
2022/11/24 10:50:26;;;;;;;12.25;2.38;;;12.70;86.20;;;;;;4955763;29;20087;-78
2022/11/24 10:53:06;;;;;;;11.73;2.13;;;12.70;86.30;;;;;;4950412;29;20428;-78
2022/11/24 10:55:54;;;;;;;8.73;2.42;;;12.80;86.30;;;;;;4960916;28;20069;-78
2022/11/24 10:58:25;;;;;;;10.50;2.25;;;12.80;86.20;;;;;;4960360;29;20039;-77
2022/11/24 11:00:52;;;;;;;8.23;1.83;;;12.80;86.10;;;;;;4945937;29;20039;-80
2022/11/24 11:03:21;;;;;;;9.88;1.70;;;12.90;86.00;;;;;;4955979;29;20034;-78
2022/11/24 11:06:07;;;;;;;9.82;1.85;;;12.90;86.10;;;;;;4941777;29;20062;-78
2022/11/24 11:08:33;;;;;;;5.95;1.60;;;12.90;86.00;;;;;;4941244;29;20023;-78
2022/11/24 11:11:18;;;;;;;4.28;1.58;;;13.00;85.80;;;;;;4948580;29;20082;-79
2022/11/24 11:13:52;;;;;;;11.48;2.42;;;12.90;85.90;;;;;;4958326;28;20054;-78
2022/11/24 11:16:44;;;;;;;8.65;1.90;;;12.90;86.00;;;;;;4958484;29;20030;-78
2022/11/24 11:19:38;;;;;;;8.98;1.52;;;13.00;85.90;;;;;;4958186;29;20019;-78
2022/11/24 11:22:10;;;;;;;11.18;1.65;;;13.10;85.70;;;;;;4958800;29;20027;-78
2022/11/24 11:24:38;;;;;;;7.40;1.98;;;13.20;85.60;;;;;;4960180;28;20031;-78
2022/11/24 11:27:18;;;;;;;6.10;1.67;;;13.20;85.20;;;;;;4950595;28;20087;-78
2022/11/24 11:29:44;;;;;;;;;;;13.20;85.30;;;;;;4941228;29;20110;-78
2022/11/24 11:32:24;;;;;;;4.07;1.40;;;13.30;85.20;;;;;;4938152;29;19946;-78
2022/11/24 11:34:52;;;;;;;;;;;13.30;85.20;;;;;;4941344;29;20036;-79
2022/11/24 11:37:19;;;;;;;6.80;2.45;;;13.30;85.30;;;;;;4954586;29;19914;-88
2022/11/24 11:39:51;;;;;;;11.23;2.45;;;13.50;85.30;;;;;;4939780;29;20031;-85
2022/11/24 11:42:27;;;;;;;5.93;1.35;;;13.50;85.00;;;;;;4939879;29;20508;-87
2022/11/24 11:44:55;;;;;;;5.53;1.77;;;13.60;85.00;;;;;;4939393;29;20682;-82
2022/11/24 11:47:31;;;;;;;7.30;2.05;;;13.60;84.80;;;;;;4949581;28;20109;-90
2022/11/24 11:49:57;;;;;;;2.70;1.40;;;13.60;84.80;;;;;;4978301;28;20034;-78
2022/11/24 11:52:39;;;;;;;5.72;2.03;;;13.50;84.60;;;;;;4973941;28;20388;-84
2022/11/24 11:55:20;;;;;;;6.20;1.48;;;13.50;84.70;;;;;;4955299;29;20035;-79
2022/11/24 11:58:13;;;;;;;7.97;1.73;;;13.60;84.80;;;;;;4940726;29;20106;-87
2022/11/24 12:00:46;;;;;;;9.50;1.73;;;13.70;84.50;;;;;;4941328;29;20039;-87
2022/11/24 12:03:24;;;;;;;5.55;1.33;;;13.70;84.20;;;;;;4939581;29;20032;-86
2022/11/24 12:06:10;;;;;;;5.00;1.55;;;13.70;84.10;;;;;;4943862;29;20071;-89
2022/11/24 12:08:59;;;;;;;10.32;2.10;;;13.70;83.90;;;;;;4940797;29;20020;-84
2022/11/24 12:11:42;;;;;;;11.25;2.33;;;13.70;84.00;;;;;;4951026;29;20027;-81
2022/11/24 12:14:22;;;;;;;9.25;1.70;;;13.80;84.00;;;;;;4958669;28;20036;-77
2022/11/24 12:17:20;;;;;;;10.32;2.05;;;13.80;84.10;;;;;;4958033;29;20055;-77
2022/11/24 12:20:23;;;;;;;12.32;2.72;;;13.90;83.90;;;;;;4949883;29;20447;-77
2022/11/24 12:22:57;;;;;;;10.15;2.00;;;13.90;83.50;;;;;;4939876;29;20031;-79
2022/11/24 12:25:52;;;;;;;5.40;2.20;;;14.10;83.40;;;;;;4938846;29;20038;-77
2022/11/24 12:28:27;;;;;;;10.02;1.60;;;14.00;83.60;;;;;;4939770;29;20030;-78
2022/11/24 12:31:01;;;;;;;6.82;1.65;;;14.10;83.80;;;;;;4956399;28;20089;-75
2022/11/24 12:33:33;;;;;;;12.20;1.75;;;14.00;83.70;;;;;;4956908;29;20027;-75
2022/11/24 12:36:15;;;;;;;8.48;1.42;;;14.00;83.70;;;;;;4957521;29;20074;-75
2022/11/24 12:38:56;;;;;;;8.07;1.80;;;14.00;83.70;;;;;;4957496;29;20027;-74
2022/11/24 12:41:46;;;;;;;7.78;1.85;;;14.00;83.50;;;;;;4952721;29;20020;-76
2022/11/24 12:44:46;;;;;;;6.00;1.23;;;14.00;83.50;;;;;;4938376;29;20038;-75
2022/11/24 12:47:38;;;;;;;9.50;2.08;;;14.10;83.20;;;;;;4939458;29;20027;-76
2022/11/24 12:50:23;;;;;;;5.47;1.23;;;14.10;83.10;;;;;;4939490;29;20023;-76
2022/11/24 12:53:07;;;;;;;9.57;2.13;;;14.20;82.80;;;;;;4937990;29;20389;-77
2022/11/24 12:55:33;;;;;;;7.63;2.10;;;14.20;82.60;;;;;;4937904;29;20027;-76
2022/11/24 12:58:11;;;;;;;11.43;2.15;;;14.20;82.90;;;;;;4953114;29;20035;-77
2022/11/24 13:00:40;;;;;;;6.80;1.83;;;14.20;83.30;;;;;;4957027;29;20034;-76
2022/11/24 13:03:24;;;;;;;15.60;2.03;;;14.20;83.50;;;;;;4953321;29;20071;-76
2022/11/24 13:06:00;;;;;;;12.50;1.80;;;14.30;83.60;;;;;;4939295;29;20619;-76
2022/11/24 13:08:27;;;;;;;5.10;1.27;;;14.30;83.10;;;;;;4939293;29;20027;-77
2022/11/24 13:10:53;;;;;;;10.55;2.70;;;14.30;83.20;;;;;;4945695;29;20086;-76
2022/11/24 13:13:23;;;;;;;5.43;1.63;;;14.30;82.90;;;;;;4956874;29;20480;-76
2022/11/24 13:15:51;;;;;;;17.73;2.10;;;14.30;82.90;;;;;;4957694;28;20034;-76
2022/11/24 13:18:39;;;;;;;8.38;1.90;;;14.30;82.90;;;;;;4956579;29;20796;-78
2022/11/24 13:21:40;;;;;;;11.32;2.13;;;14.40;82.80;;;;;;4956765;29;20024;-81
2022/11/24 13:24:21;;;;;;;9.02;1.45;;;14.50;82.50;;;;;;4957426;28;20039;-76
2022/11/24 13:26:54;;;;;;;8.65;1.52;;;14.50;82.40;;;;;;4958050;28;20023;-77
2022/11/24 13:29:30;;;;;;;13.82;2.10;;;14.50;82.30;;;;;;4956551;29;20027;-76
2022/11/24 13:32:05;;;;;;;10.63;1.85;;;14.40;82.50;;;;;;4957143;28;20058;-77
2022/11/24 13:37:39;;;;;;;14.98;2.10;;;14.60;82.40;;;;;;4957775;28;20118;-77
2022/11/24 13:40:11;;;;;;;16.27;2.17;;;14.80;82.10;;;;;;4937373;29;20043;-76
2022/11/24 13:42:55;;;;;;;6.30;2.08;;;14.80;81.70;;;;;;4951440;29;20031;-78
2022/11/24 13:45:39;;;;;;;9.18;1.38;;;14.80;81.50;;;;;;4956204;29;20054;-78
2022/11/24 13:48:34;;;;;;;16.77;3.63;;;14.70;81.20;;;;;;4943748;29;20657;-76
2022/11/24 13:51:00;;;;;;;10.02;2.13;;;14.60;81.60;;;;;;4943250;29;20451;-77
2022/11/24 13:53:32;;;;;;;5.55;1.52;;;14.50;81.90;;;;;;4956250;29;20501;-77
2022/11/24 13:56:13;;;;;;;11.07;2.50;;;14.40;81.90;;;;;;4957116;28;20027;-77
2022/11/24 13:58:48;;;;;;;14.02;2.65;;;14.40;81.90;;;;;;4956126;29;20020;-77
2022/11/24 14:01:27;;;;;;;12.80;1.80;;;14.50;81.90;;;;;;4957074;28;20038;-77
2022/11/24 14:03:58;;;;;;;15.18;2.88;;;14.40;81.90;;;;;;4957467;28;20110;-77
2022/11/24 14:06:30;;;;;;;13.27;1.70;;;14.40;82.00;;;;;;4957130;28;20038;-76
2022/11/24 14:08:58;;;;;;;12.82;1.98;;;14.40;81.90;;;;;;4956119;29;20035;-76
2022/11/24 14:11:25;;;;;;;10.32;2.15;;;14.40;82.10;;;;;;4957490;28;20555;-77
2022/11/24 14:13:52;;;;;;;6.32;1.40;;;14.40;82.30;;;;;;4956776;28;20019;-77
2022/11/24 14:16:20;;;;;;;9.85;1.63;;;14.30;82.70;;;;;;4956142;29;20046;-77
2022/11/24 14:18:47;;;;;;;13.15;2.38;;;14.40;82.90;;;;;;4955999;29;20034;-76
2022/11/24 14:21:19;;;;;;;17.48;2.42;;;14.40;82.70;;;;;;4946941;28;20028;-76
2022/11/24 14:23:49;;;;;;;8.90;2.20;;;14.50;82.60;;;;;;4938029;29;20039;-77
2022/11/24 14:26:22;;;;;;;8.13;2.10;;;14.40;82.20;;;;;;4938761;29;20031;-77
2022/11/24 14:28:49;;;;;;;10.85;2.05;;;14.50;81.70;;;;;;4952705;29;20028;-76
2022/11/24 14:31:20;;;;;;;13.70;2.17;;;14.50;81.40;;;;;;4953560;28;20047;-76
2022/11/24 14:33:46;;;;;;;11.77;2.03;;;14.50;81.30;;;;;;4957340;28;20023;-76
2022/11/24 14:36:16;;;;;;;9.68;1.88;;;14.40;81.30;;;;;;4957342;28;20059;-76
2022/11/24 14:38:42;;;;;;;;;;;14.50;81.10;;;;;;4950921;29;20499;-77
2022/11/24 14:41:24;;;;;;;8.48;1.77;;;14.40;80.20;;;;;;4940505;29;19933;-77
2022/11/24 14:44:02;;;;;;;3.65;1.40;;;14.40;80.40;;;;;;4956461;28;20040;-77
2022/11/24 14:46:27;;;;;;;5.88;2.33;;;14.50;80.10;;;;;;4957159;28;20030;-76
2022/11/24 14:48:53;;;;;;;10.02;2.03;;;14.50;79.90;;;;;;4955835;29;20028;-77
2022/11/24 14:51:30;;;;;;;10.88;2.20;;;14.40;79.30;;;;;;4955061;29;20047;-76
2022/11/24 14:54:02;;;;;;;9.27;1.52;;;14.50;79.40;;;;;;4970165;28;20051;-76
2022/11/24 14:56:37;;;;;;;10.98;1.88;;;14.40;79.20;;;;;;4955514;29;20034;-77
2022/11/24 14:59:18;;;;;;;6.07;2.05;;;14.40;79.20;;;;;;4956398;28;20094;-76
2022/11/24 15:01:44;;;;;;;8.65;1.80;;;14.40;79.30;;;;;;4955847;29;20496;-76
2022/11/24 15:04:16;;;;;;;7.40;1.23;;;14.40;79.00;;;;;;4956880;28;20053;-76
2022/11/24 15:06:45;;;;;;;8.23;2.00;;;14.40;79.00;;;;;;4955349;28;20020;-76
2022/11/24 15:09:40;;;;;;;6.97;1.67;;;14.40;79.10;;;;;;4941204;29;20448;-77
2022/11/24 15:12:40;;;;;;;6.90;2.25;;;14.40;79.00;;;;;;4957382;29;20030;-76
2022/11/24 15:15:21;;;;;;;8.77;1.73;;;14.40;78.70;;;;;;4954494;29;20079;-76
2022/11/24 15:17:51;;;;;;;8.20;1.30;;;14.40;78.40;;;;;;4960430;28;20023;-76
2022/11/24 15:20:29;;;;;;;11.85;2.22;;;14.40;78.20;;;;;;4946937;28;20456;-76
2022/11/24 15:23:24;;;;;;;5.50;1.52;;;14.40;77.60;;;;;;4955794;29;20039;-76
2022/11/24 15:26:16;;;;;;;3.30;1.25;;;14.40;78.00;;;;;;4939603;29;20043;-76
2022/11/24 15:28:44;;;;;;;5.03;1.35;;;14.40;77.40;;;;;;4955035;29;20376;-77
2022/11/24 15:31:11;;;;;;;5.47;1.52;;;14.40;77.30;;;;;;4959990;28;20078;-77
2022/11/24 15:33:38;;;;;;;9.35;1.98;;;14.40;77.30;;;;;;4959520;28;20028;-77
2022/11/24 15:36:04;;;;;;;9.10;1.38;;;14.40;77.30;;;;;;4959983;28;20086;-77
2022/11/24 15:38:30;;;;;;;10.00;2.13;;;14.40;77.30;;;;;;4958596;29;20035;-77
2022/11/24 15:40:58;;;;;;;8.40;1.90;;;14.40;77.30;;;;;;4958063;29;20403;-76
2022/11/24 15:43:33;;;;;;;8.27;1.73;;;14.40;77.60;;;;;;4959893;28;20087;-76
2022/11/24 15:46:00;;;;;;;7.63;1.60;;;14.40;77.60;;;;;;4959245;28;20070;-76
2022/11/24 15:48:27;;;;;;;10.50;2.28;;;14.40;77.80;;;;;;4959780;28;20028;-77
2022/11/24 15:50:54;;;;;;;7.03;1.63;;;14.40;77.80;;;;;;4945084;28;20035;-77
2022/11/24 15:53:24;;;;;;;6.60;2.15;;;14.40;78.00;;;;;;4953302;29;20027;-77
2022/11/24 15:55:51;;;;;;;10.63;2.15;;;14.30;79.00;;;;;;4954631;29;20040;-77
2022/11/24 15:58:17;;;;;;;4.47;1.48;;;14.30;80.30;;;;;;4940480;29;20526;-76
2022/11/24 16:00:43;;;;;;;4.20;1.42;;;14.30;80.70;;;;;;4940189;29;20028;-76
2022/11/24 16:03:09;;;;;;;12.20;2.25;;;14.20;81.40;;;;;;4946745;29;20035;-76
2022/11/24 16:05:39;;;;;;;9.65;1.95;;;14.20;81.70;;;;;;4959371;28;20039;-76
2022/11/24 16:08:11;;;;;;;8.02;2.50;;;14.10;82.30;;;;;;4959536;28;20453;-76
2022/11/24 16:10:37;;;;;;;13.98;2.40;;;14.10;82.50;;;;;;4952191;28;20067;-76
2022/11/24 16:13:03;;;;;;;10.35;2.20;;;14.00;83.20;;;;;;4940184;29;20112;-76
2022/11/24 16:15:30;;;;;;;12.38;1.75;;;14.00;83.70;;;;;;4939901;29;20476;-76
2022/11/24 16:17:55;;;;;;;11.63;1.92;;;13.90;83.90;;;;;;4938529;29;20036;-76
2022/11/24 16:20:21;;;;;;;6.97;1.98;;;13.90;84.00;;;;;;4940316;29;20112;-76
2022/11/24 16:22:47;;;;;;;17.52;3.15;;;13.90;84.50;;;;;;4954617;29;20032;-75
2022/11/24 16:25:13;;;;;;;12.88;2.33;;;13.90;84.80;;;;;;4954414;29;20028;-75
2022/11/24 16:27:39;;;;;;;9.20;2.35;;;13.90;84.90;;;;;;4938980;29;20507;-76
2022/11/24 16:30:06;;;;;;;13.20;2.60;;;13.90;85.00;;;;;;4939619;29;20036;-76
2022/11/24 16:32:32;;;;;;;14.50;2.45;;;13.90;85.00;;;;;;4945825;29;20216;-76
2022/11/24 16:34:58;;;;;;;9.35;2.30;;;13.90;85.10;;;;;;4956504;28;20050;-76
2022/11/24 16:37:23;;;;;;;9.05;2.13;;;13.90;85.20;;;;;;4958025;29;20138;-77
2022/11/24 16:39:49;;;;;;;6.53;2.47;;;13.80;85.10;;;;;;4956219;29;20503;-76
2022/11/24 16:42:15;;;;;;;11.38;2.97;;;13.80;85.20;;;;;;4977705;28;20023;-77
2022/11/24 16:44:41;;;;;;;14.70;2.58;;;13.80;85.30;;;;;;4950273;28;20482;-77
2022/11/24 16:47:07;;;;;;;16.20;3.15;;;13.80;85.40;;;;;;4941017;29;20039;-87
2022/11/24 16:49:38;;;;;;;8.02;2.85;;;13.80;85.20;;;;;;4954436;28;20028;-81
2022/11/24 16:52:04;;;;;;;11.57;2.72;;;13.70;85.40;;;;;;4957424;28;20023;-83
2022/11/24 16:54:30;;;;;;;8.70;2.53;;;13.70;85.60;;;;;;4953464;29;20513;-85
2022/11/24 16:56:56;;;;;;;17.90;3.70;;;13.70;85.60;;;;;;4955645;29;20514;-84
2022/11/24 16:59:21;;;;;;;17.63;4.82;;;13.70;85.50;;;;;;4957379;29;20058;-85
2022/11/24 17:01:49;;;;;;;13.23;2.45;;;13.70;85.50;;;;;;4949299;29;20043;-83
2022/11/24 17:04:15;;;;;;;14.95;2.30;;;13.70;85.30;;;;;;4956856;29;20558;-81
2022/11/24 17:06:43;;;;;;;13.85;3.22;;;13.70;85.50;;;;;;4954110;28;20063;-78
2022/11/24 17:09:09;;;;;;;17.15;3.63;;;13.70;85.40;;;;;;4939573;28;20104;-86
2022/11/24 17:11:35;;;;;;;6.18;1.90;;;13.70;85.40;;;;;;4963201;28;20035;-86
2022/11/24 17:14:01;;;;;;;11.15;2.30;;;13.70;85.30;;;;;;4956952;28;20035;-85
2022/11/24 17:16:27;;;;;;;14.18;3.33;;;13.80;85.30;;;;;;4956657;28;20063;-84
2022/11/24 17:18:53;;;;;;;15.43;2.72;;;13.80;85.20;;;;;;4964095;28;20399;-83
2022/11/24 17:21:21;;;;;;;8.60;2.55;;;13.80;85.10;;;;;;4962309;28;20122;-82
2022/11/24 17:23:54;;;;;;;7.10;2.13;;;13.80;85.30;;;;;;4952790;28;20043;-83
2022/11/24 17:26:20;;;;;;;25.48;3.00;;;13.80;85.40;;;;;;4952159;28;20039;-82
2022/11/24 17:28:45;;;;;;;10.82;2.65;;;13.80;85.40;;;;;;4972317;28;20477;-82
2022/11/24 17:31:31;;;;;;;11.27;2.15;;;13.80;85.70;;;;;;4953937;28;20047;-84
2022/11/24 17:33:59;;;;;;;7.25;2.42;;;13.70;86.00;;;;;;4931921;28;20094;-85
2022/11/24 17:36:25;;;;;;;12.85;2.30;;;13.70;86.10;;;;;;4945227;29;20035;-84
2022/11/24 17:38:51;;;;;;;9.25;2.03;;;13.60;86.30;;;;;;4955089;29;20439;-83
2022/11/24 17:41:18;;;;;;;6.00;1.65;;;13.50;85.50;;;;;;4951733;29;20049;-84
2022/11/24 17:43:49;;;;;;;5.43;2.22;;;13.30;84.80;;;;;;4949534;29;20610;-85
2022/11/24 17:46:15;;;;;;;7.07;2.25;;;13.20;84.10;;;;;;4945092;28;20058;-82
2022/11/24 17:48:40;;;;;;;3.38;1.83;;;13.20;85.00;;;;;;4954554;29;20039;-83
2022/11/24 17:51:09;;;;;;;3.70;1.67;;;13.20;85.00;;;;;;4953270;29;20082;-83
2022/11/24 17:53:36;;;;;;;4.65;1.77;;;13.20;84.90;;;;;;4953598;29;20109;-81
2022/11/24 17:56:03;;;;;;;2.17;1.33;;;13.10;84.80;;;;;;4951760;29;20042;-77
2022/11/24 17:58:30;;;;;;;6.07;1.60;;;13.10;84.80;;;;;;4951435;29;20039;-83
2022/11/24 18:00:57;;;;;;;6.53;2.33;;;13.00;84.40;;;;;;4951252;28;20105;-81
2022/11/24 18:03:24;;;;;;;7.78;2.70;;;13.00;84.70;;;;;;4955059;28;20078;-88
2022/11/24 18:05:50;;;;;;;6.43;2.55;;;13.00;85.50;;;;;;4957765;28;20126;-79
2022/11/24 18:08:16;;;;;;;8.70;3.85;;;13.00;84.80;;;;;;4951691;28;20059;-83
2022/11/24 18:10:41;;;;;;;9.02;2.92;;;13.00;85.30;;;;;;4949813;28;20031;-80
2022/11/24 18:13:08;;;;;;;7.15;4.95;;;13.00;85.10;;;;;;4959331;28;20503;-80
2022/11/24 18:15:34;;;;;;;7.38;3.33;;;13.00;84.90;;;;;;4958741;28;20039;-83
2022/11/24 18:18:01;;;;;;;4.25;1.92;;;13.00;84.80;;;;;;4966706;28;20086;-84
2022/11/24 18:20:27;;;;;;;8.27;4.53;;;13.00;84.30;;;;;;4958842;28;20033;-84
2022/11/24 18:22:54;;;;;;;18.23;7.25;;;12.90;84.70;;;;;;4966270;28;20506;-84
2022/11/24 18:25:20;;;;;;;15.35;4.47;;;13.00;84.80;;;;;;4960382;28;20034;-84
2022/11/24 18:27:46;;;;;;;6.53;4.47;;;12.90;84.60;;;;;;4956562;28;20178;-85
2022/11/24 18:30:13;;;;;;;4.95;1.92;;;12.90;84.70;;;;;;4954436;28;20081;-81
2022/11/24 18:32:38;;;;;;;5.90;2.33;;;12.80;84.60;;;;;;4953706;29;20132;-81
2022/11/24 18:35:05;;;;;;;2.90;2.20;;;12.80;84.90;;;;;;4947876;28;20055;-83
2022/11/24 18:37:32;;;;;;;5.38;3.22;;;12.80;84.80;;;;;;4955079;28;20051;-84
2022/11/24 18:40:00;;;;;;;5.55;3.15;;;12.90;84.90;;;;;;4959396;28;20031;-84